createdAt,value
2022-11-29T00:00:21.608Z,4.40
2022-11-29T00:01:26.190Z,4.33
2022-11-29T00:02:28.032Z,4.60
2022-11-29T00:03:30.253Z,4.23
2022-11-29T00:04:32.082Z,3.93
2022-11-29T00:05:36.964Z,4.00
2022-11-29T00:06:38.499Z,3.93
2022-11-29T00:07:40.021Z,4.50
2022-11-29T00:08:42.396Z,3.77
2022-11-29T00:09:43.777Z,4.60
2022-11-29T00:10:45.195Z,4.13
2022-11-29T00:12:05.480Z,4.03
2022-11-29T00:13:06.934Z,4.03
2022-11-29T00:14:11.873Z,4.90
2022-11-29T00:15:13.478Z,4.70
2022-11-29T00:16:15.724Z,4.67
2022-11-29T00:17:17.216Z,4.07
2022-11-29T00:18:19.234Z,4.73
2022-11-29T00:19:21.220Z,3.90
2022-11-29T00:20:23.281Z,4.20
2022-11-29T00:21:24.931Z,4.40
2022-11-29T00:22:27.207Z,4.10
2022-11-29T00:23:29.349Z,5.50
2022-11-29T00:24:35.091Z,4.80
2022-11-29T00:25:38.533Z,4.47
2022-11-29T00:26:40.261Z,4.50
2022-11-29T00:27:42.123Z,4.37
2022-11-29T00:28:43.620Z,4.20
2022-11-29T00:29:45.110Z,4.63
2022-11-29T00:30:47.551Z,4.40
2022-11-29T00:31:48.959Z,4.33
2022-11-29T00:32:50.316Z,4.53
2022-11-29T00:33:51.747Z,4.83
2022-11-29T00:34:53.230Z,5.17
2022-11-29T00:35:54.681Z,4.13
2022-11-29T00:36:56.344Z,4.07
2022-11-29T00:37:57.969Z,4.30
2022-11-29T00:38:59.560Z,4.13
2022-11-29T00:40:01.090Z,4.20
2022-11-29T00:41:02.537Z,5.70
2022-11-29T00:42:04.211Z,4.30
2022-11-29T00:43:05.863Z,4.60
2022-11-29T00:44:07.788Z,4.60
2022-11-29T00:45:09.615Z,4.20
2022-11-29T00:46:12.744Z,4.37
2022-11-29T00:47:14.328Z,4.00
2022-11-29T00:48:15.919Z,4.90
2022-11-29T00:49:17.396Z,4.20
2022-11-29T00:50:19.071Z,4.17
2022-11-29T00:51:20.448Z,4.60
2022-11-29T00:52:21.920Z,4.43
2022-11-29T00:53:23.855Z,4.13
2022-11-29T00:54:25.370Z,4.37
2022-11-29T00:55:26.801Z,4.43
2022-11-29T00:56:28.292Z,4.47
2022-11-29T00:57:29.712Z,3.87
2022-11-29T00:58:31.492Z,4.70
2022-11-29T00:59:32.935Z,4.57
2022-11-29T01:00:34.419Z,4.53
2022-11-29T01:01:35.971Z,4.27
2022-11-29T01:02:37.605Z,4.30
2022-11-29T01:03:39.374Z,4.33
2022-11-29T01:04:40.939Z,4.90
2022-11-29T01:05:42.980Z,4.60
2022-11-29T01:06:44.422Z,4.53
2022-11-29T01:07:46.029Z,3.90
2022-11-29T01:08:48.064Z,4.20
2022-11-29T01:09:49.504Z,4.27
2022-11-29T01:11:00.473Z,4.00
2022-11-29T01:12:01.820Z,4.43
2022-11-29T01:13:03.303Z,4.30
2022-11-29T01:14:04.959Z,4.23
2022-11-29T01:15:07.561Z,4.17
2022-11-29T01:16:09.345Z,4.60
2022-11-29T01:17:10.826Z,4.43
2022-11-29T01:18:12.377Z,4.20
2022-11-29T01:19:13.740Z,4.40
2022-11-29T01:20:16.205Z,3.97
2022-11-29T01:21:21.215Z,4.13
2022-11-29T01:22:22.650Z,4.00
2022-11-29T01:23:24.225Z,4.63
2022-11-29T01:24:25.721Z,4.57
2022-11-29T01:25:27.467Z,4.20
2022-11-29T01:26:30.580Z,4.50
2022-11-29T01:27:32.340Z,4.23
2022-11-29T01:28:34.493Z,4.80
2022-11-29T01:29:35.924Z,4.03
2022-11-29T01:30:38.296Z,4.20
2022-11-29T01:31:39.825Z,4.50
2022-11-29T01:32:41.632Z,3.93
2022-11-29T01:33:43.632Z,4.20
2022-11-29T01:34:45.467Z,5.00
2022-11-29T01:35:51.725Z,4.40
2022-11-29T01:36:53.201Z,5.77
2022-11-29T01:37:54.712Z,4.87
2022-11-29T01:38:58.130Z,4.43
2022-11-29T01:39:59.486Z,3.93
2022-11-29T01:41:17.515Z,4.03
2022-11-29T01:42:19.038Z,5.03
2022-11-29T01:43:21.025Z,4.80
2022-11-29T01:44:22.762Z,4.17
2022-11-29T01:45:26.512Z,4.83
2022-11-29T01:46:31.245Z,4.43
2022-11-29T01:47:33.588Z,4.03
2022-11-29T01:48:35.120Z,4.73
2022-11-29T01:49:41.092Z,4.37
2022-11-29T01:50:43.026Z,4.20
2022-11-29T01:51:55.874Z,4.87
2022-11-29T01:52:58.655Z,4.00
2022-11-29T01:54:00.178Z,4.20
2022-11-29T01:55:05.628Z,4.53
2022-11-29T01:56:08.149Z,4.27
2022-11-29T01:57:11.113Z,4.30
2022-11-29T01:58:13.811Z,4.03
2022-11-29T01:59:19.377Z,4.10
2022-11-29T02:00:21.195Z,4.73
2022-11-29T02:01:22.908Z,4.63
2022-11-29T02:02:35.695Z,4.63
2022-11-29T02:03:37.435Z,4.67
2022-11-29T02:04:41.669Z,4.67
2022-11-29T02:05:47.845Z,4.30
2022-11-29T02:06:49.648Z,4.20
2022-11-29T02:07:55.977Z,4.77
2022-11-29T02:08:57.618Z,4.67
2022-11-29T02:09:59.141Z,4.70
2022-11-29T02:11:15.819Z,5.17
2022-11-29T02:12:43.181Z,4.63
2022-11-29T02:13:53.226Z,4.43
2022-11-29T02:15:05.341Z,4.90
2022-11-29T02:16:16.592Z,4.00
2022-11-29T02:17:21.292Z,4.37
2022-11-29T02:18:51.118Z,3.90
2022-11-29T02:20:06.793Z,4.57
2022-11-29T02:21:16.470Z,4.33
2022-11-29T02:22:42.977Z,4.50
2022-11-29T02:24:23.453Z,4.90
2022-11-29T02:25:40.236Z,4.50
2022-11-29T02:27:08.886Z,4.40
2022-11-29T02:28:28.560Z,4.00
2022-11-29T02:30:00.177Z,4.57
2022-11-29T02:31:20.359Z,4.90
2022-11-29T02:32:21.759Z,4.33
2022-11-29T02:33:38.245Z,4.00
2022-11-29T02:34:57.984Z,4.20
2022-11-29T02:36:29.085Z,4.90
2022-11-29T02:38:03.100Z,3.87
2022-11-29T02:39:40.080Z,4.60
2022-11-29T02:40:56.685Z,4.10
2022-11-29T02:42:30.500Z,4.27
2022-11-29T02:43:47.011Z,4.80
2022-11-29T02:45:09.928Z,4.30
2022-11-29T02:46:41.179Z,4.20
2022-11-29T02:47:42.522Z,4.20
2022-11-29T02:49:12.701Z,5.80
2022-11-29T02:50:18.651Z,4.47
2022-11-29T02:51:31.840Z,4.57
2022-11-29T02:52:54.901Z,4.70
2022-11-29T02:54:14.266Z,4.63
2022-11-29T02:55:21.586Z,5.77
2022-11-29T02:56:34.313Z,4.47
2022-11-29T02:57:54.963Z,4.30
2022-11-29T02:59:20.703Z,4.13
2022-11-29T03:00:23.392Z,4.37
2022-11-29T03:01:34.898Z,4.17
2022-11-29T03:02:59.672Z,4.27
2022-11-29T03:04:13.083Z,4.40
2022-11-29T03:05:37.615Z,4.40
2022-11-29T03:06:38.933Z,4.20
2022-11-29T03:07:57.732Z,4.77
2022-11-29T03:09:45.202Z,4.20
2022-11-29T03:10:58.334Z,4.47
2022-11-29T03:12:11.836Z,4.13
2022-11-29T03:13:50.580Z,4.90
2022-11-29T03:15:08.996Z,4.77
2022-11-29T03:16:10.374Z,4.50
2022-11-29T03:17:36.089Z,4.30
2022-11-29T03:18:55.964Z,4.20
2022-11-29T03:20:31.401Z,4.90
2022-11-29T03:21:44.366Z,3.80
2022-11-29T03:22:57.414Z,4.30
2022-11-29T03:24:04.808Z,4.43
2022-11-29T03:25:22.746Z,4.23
2022-11-29T03:26:32.034Z,4.10
2022-11-29T03:28:02.960Z,4.67
2022-11-29T03:29:30.216Z,4.73
2022-11-29T03:30:34.397Z,4.43
2022-11-29T03:31:58.880Z,3.83
2022-11-29T03:33:21.785Z,4.80
2022-11-29T03:34:38.928Z,4.43
2022-11-29T03:35:47.896Z,4.53
2022-11-29T03:37:06.161Z,4.20
2022-11-29T03:38:21.755Z,4.23
2022-11-29T03:39:53.032Z,4.33
2022-11-29T03:41:12.278Z,4.70
2022-11-29T03:42:29.555Z,5.87
2022-11-29T03:43:44.621Z,4.87
2022-11-29T03:45:27.522Z,4.90
2022-11-29T03:46:40.551Z,4.60
2022-11-29T03:47:57.947Z,4.30
2022-11-29T03:49:16.404Z,4.60
2022-11-29T03:50:23.337Z,4.30
2022-11-29T03:51:39.661Z,4.70
2022-11-29T03:53:08.041Z,4.40
2022-11-29T03:54:14.815Z,5.23
2022-11-29T03:55:22.433Z,4.87
2022-11-29T03:56:35.843Z,4.80
2022-11-29T03:58:07.738Z,5.60
2022-11-29T03:59:19.511Z,4.87
2022-11-29T04:00:21.778Z,4.53
2022-11-29T04:01:58.200Z,5.33
2022-11-29T04:03:24.462Z,5.03
2022-11-29T04:04:38.164Z,4.83
2022-11-29T04:06:09.021Z,4.87
2022-11-29T04:07:28.447Z,4.50
2022-11-29T04:08:51.036Z,4.70
2022-11-29T04:10:30.988Z,4.60
2022-11-29T04:11:35.434Z,4.97
2022-11-29T04:12:42.808Z,4.83
2022-11-29T04:13:47.293Z,5.07
2022-11-29T04:15:24.052Z,4.67
2022-11-29T04:16:34.511Z,4.97
2022-11-29T04:18:02.437Z,5.00
2022-11-29T04:19:15.808Z,5.47
2022-11-29T04:20:41.134Z,4.70
2022-11-29T04:22:02.524Z,5.20
2022-11-29T04:23:18.087Z,5.00
2022-11-29T04:24:54.322Z,4.90
2022-11-29T04:26:14.773Z,4.70
2022-11-29T04:27:30.958Z,5.67
2022-11-29T04:28:37.976Z,5.10
2022-11-29T04:29:51.213Z,4.93
2022-11-29T04:31:02.308Z,5.10
2022-11-29T04:32:42.590Z,5.10
2022-11-29T04:33:58.788Z,5.03
2022-11-29T04:35:38.780Z,5.00
2022-11-29T04:36:42.787Z,5.10
2022-11-29T04:38:10.849Z,4.70
2022-11-29T04:39:38.349Z,5.50
2022-11-29T04:40:57.703Z,5.13
2022-11-29T04:42:16.756Z,5.53
2022-11-29T04:43:49.156Z,5.30
2022-11-29T04:45:23.897Z,5.07
2022-11-29T04:46:31.349Z,5.13
2022-11-29T04:47:54.705Z,5.10
2022-11-29T04:49:21.428Z,5.10
2022-11-29T04:50:41.422Z,5.63
2022-11-29T04:51:59.640Z,4.80
2022-11-29T04:53:06.728Z,5.50
2022-11-29T04:54:26.507Z,5.77
2022-11-29T04:55:51.369Z,5.37
2022-11-29T04:57:07.236Z,5.10
2022-11-29T04:58:24.396Z,5.30
2022-11-29T04:59:47.579Z,4.90
2022-11-29T05:01:02.203Z,5.90
2022-11-29T05:02:32.828Z,5.00
2022-11-29T05:03:46.986Z,5.40
2022-11-29T05:04:53.345Z,5.90
2022-11-29T05:06:39.194Z,5.20
2022-11-29T05:07:48.084Z,5.30
2022-11-29T05:08:58.229Z,5.57
2022-11-29T05:10:18.677Z,5.40
2022-11-29T05:11:43.314Z,5.10
2022-11-29T05:13:17.868Z,5.50
2022-11-29T05:14:38.037Z,6.03
2022-11-29T05:16:12.571Z,5.50
2022-11-29T05:17:46.097Z,5.30
2022-11-29T05:19:19.124Z,5.90
2022-11-29T05:20:39.675Z,5.77
2022-11-29T05:22:11.619Z,4.90
2022-11-29T05:23:16.348Z,5.20
2022-11-29T05:24:28.124Z,5.77
2022-11-29T05:25:38.200Z,6.00
2022-11-29T05:26:56.679Z,5.60
2022-11-29T05:28:20.455Z,5.80
2022-11-29T05:29:46.227Z,5.57
2022-11-29T05:30:55.539Z,5.77
2022-11-29T05:32:02.817Z,7.20
2022-11-29T05:33:32.259Z,5.90
2022-11-29T05:34:45.959Z,6.77
2022-11-29T05:36:01.596Z,5.83
2022-11-29T05:37:19.913Z,5.90
2022-11-29T05:38:23.975Z,5.60
2022-11-29T05:39:47.329Z,6.10
2022-11-29T05:41:04.304Z,6.40
2022-11-29T05:42:38.635Z,5.93
2022-11-29T05:43:58.823Z,6.13
2022-11-29T05:45:33.255Z,5.90
2022-11-29T05:47:02.575Z,6.20
2022-11-29T05:48:09.445Z,6.60
2022-11-29T05:49:35.901Z,6.30
2022-11-29T05:50:51.035Z,6.33
2022-11-29T05:52:30.076Z,5.80
2022-11-29T05:53:44.280Z,6.00
2022-11-29T05:55:15.982Z,6.13
2022-11-29T05:56:55.261Z,6.07
2022-11-29T05:58:02.550Z,5.60
2022-11-29T05:59:09.800Z,5.67
2022-11-29T06:00:12.864Z,5.50
2022-11-29T06:01:14.259Z,6.33
2022-11-29T06:02:30.968Z,5.70
2022-11-29T06:04:10.317Z,5.90
2022-11-29T06:05:17.901Z,5.70
2022-11-29T06:06:56.293Z,6.43
2022-11-29T06:08:05.372Z,6.13
2022-11-29T06:09:43.594Z,5.73
2022-11-29T06:11:22.368Z,5.57
2022-11-29T06:12:26.731Z,5.87
2022-11-29T06:13:31.444Z,5.83
2022-11-29T06:14:49.143Z,5.70
2022-11-29T06:16:28.277Z,6.43
2022-11-29T06:17:48.669Z,5.63
2022-11-29T06:18:52.835Z,6.07
2022-11-29T06:20:00.256Z,5.67
2022-11-29T06:21:07.257Z,6.03
2022-11-29T06:22:21.970Z,5.93
2022-11-29T06:23:58.709Z,6.13
2022-11-29T06:25:22.309Z,6.13
2022-11-29T06:26:53.288Z,5.60
2022-11-29T06:28:18.669Z,5.57
2022-11-29T06:29:42.188Z,6.57
2022-11-29T06:30:52.464Z,5.83
2022-11-29T06:32:13.076Z,5.37
2022-11-29T06:33:28.895Z,6.03
2022-11-29T06:34:40.225Z,6.40
2022-11-29T06:36:00.620Z,6.43
2022-11-29T06:37:13.770Z,5.67
2022-11-29T06:38:18.400Z,6.57
2022-11-29T06:39:20.196Z,6.17
2022-11-29T06:40:22.060Z,5.40
2022-11-29T06:41:24.603Z,5.60
2022-11-29T06:42:26.047Z,5.50
2022-11-29T06:43:28.304Z,6.07
2022-11-29T06:44:30.128Z,5.43
2022-11-29T06:45:32.110Z,5.80
2022-11-29T06:46:49.048Z,5.63
2022-11-29T06:48:02.759Z,5.70
2022-11-29T06:49:11.799Z,6.07
2022-11-29T06:50:19.492Z,5.83
2022-11-29T06:51:32.757Z,6.43
2022-11-29T06:52:46.179Z,5.90
2022-11-29T06:54:05.658Z,6.03
2022-11-29T06:55:32.074Z,6.47
2022-11-29T06:57:00.690Z,6.07
2022-11-29T06:58:14.113Z,5.60
2022-11-29T06:59:52.986Z,5.87
2022-11-29T07:01:15.833Z,5.97
2022-11-29T07:02:41.119Z,6.10
2022-11-29T07:04:11.790Z,5.93
2022-11-29T07:05:31.388Z,5.83
2022-11-29T07:06:35.408Z,5.70
2022-11-29T07:07:37.202Z,5.97
2022-11-29T07:08:40.111Z,6.43
2022-11-29T07:09:43.033Z,5.50
2022-11-29T07:10:46.393Z,5.50
2022-11-29T07:11:48.352Z,6.47
2022-11-29T07:12:51.246Z,6.80
2022-11-29T07:13:53.007Z,6.47
2022-11-29T07:14:56.187Z,6.80
2022-11-29T07:16:12.797Z,7.03
2022-11-29T07:17:55.485Z,6.13
2022-11-29T07:19:14.991Z,5.90
2022-11-29T07:20:25.418Z,6.10
2022-11-29T07:21:46.024Z,6.33
2022-11-29T07:23:02.539Z,6.20
2022-11-29T07:24:21.187Z,5.70
2022-11-29T07:25:28.728Z,7.23
2022-11-29T07:27:07.255Z,5.87
2022-11-29T07:28:30.312Z,5.90
2022-11-29T07:29:50.419Z,6.00
2022-11-29T07:30:57.697Z,6.80
2022-11-29T07:32:18.008Z,5.80
2022-11-29T07:33:25.031Z,6.00
2022-11-29T07:34:32.198Z,5.93
2022-11-29T07:35:39.084Z,5.70
2022-11-29T07:37:01.509Z,5.80
2022-11-29T07:38:12.920Z,5.83
2022-11-29T07:39:17.700Z,6.70
2022-11-29T07:40:37.623Z,5.57
2022-11-29T07:41:45.086Z,6.60
2022-11-29T07:42:57.730Z,6.23
2022-11-29T07:44:20.120Z,5.53
2022-11-29T07:45:28.812Z,6.97
2022-11-29T07:46:30.489Z,7.13
2022-11-29T07:47:35.774Z,5.70
2022-11-29T07:48:37.635Z,6.17
2022-11-29T07:49:39.047Z,6.37
2022-11-29T07:50:41.253Z,5.23
2022-11-29T07:51:43.099Z,5.50
2022-11-29T07:52:44.808Z,5.70
2022-11-29T07:53:46.415Z,5.30
2022-11-29T07:54:48.330Z,5.67
2022-11-29T07:55:50.730Z,5.53
2022-11-29T07:56:52.142Z,5.60
2022-11-29T07:57:53.836Z,5.20
2022-11-29T07:58:55.273Z,5.30
2022-11-29T07:59:56.884Z,5.80
2022-11-29T08:00:58.377Z,5.57
2022-11-29T08:01:59.868Z,5.10
2022-11-29T08:03:01.303Z,6.17
2022-11-29T08:04:02.664Z,5.77
2022-11-29T08:05:04.460Z,5.63
2022-11-29T08:06:06.018Z,5.83
2022-11-29T08:07:07.376Z,6.40
2022-11-29T08:08:08.820Z,5.50
2022-11-29T08:09:10.260Z,5.77
2022-11-29T08:10:15.172Z,5.50
2022-11-29T08:11:16.610Z,5.20
2022-11-29T08:12:17.990Z,5.60
2022-11-29T08:13:22.287Z,5.70
2022-11-29T08:14:24.461Z,5.37
2022-11-29T08:15:26.141Z,5.67
2022-11-29T08:16:28.184Z,5.67
2022-11-29T08:17:29.632Z,5.47
2022-11-29T08:18:31.056Z,6.10
2022-11-29T08:19:32.537Z,5.50
2022-11-29T08:20:34.225Z,5.60
2022-11-29T08:21:35.685Z,4.93
2022-11-29T08:22:37.152Z,4.93
2022-11-29T08:23:38.531Z,5.50
2022-11-29T08:24:40.006Z,4.93
2022-11-29T08:25:41.965Z,5.30
2022-11-29T08:26:43.367Z,4.77
2022-11-29T08:27:44.756Z,4.93
2022-11-29T08:28:51.720Z,5.40
2022-11-29T08:29:53.119Z,5.00
2022-11-29T08:31:02.366Z,5.13
2022-11-29T08:32:03.864Z,5.83
2022-11-29T08:33:06.209Z,5.10
2022-11-29T08:34:09.178Z,5.07
2022-11-29T08:35:10.800Z,5.40
2022-11-29T08:36:19.670Z,5.23
2022-11-29T08:37:21.097Z,5.17
2022-11-29T08:38:23.083Z,4.90
2022-11-29T08:39:24.962Z,5.40
2022-11-29T08:40:26.524Z,4.97
2022-11-29T08:41:28.717Z,5.40
2022-11-29T08:42:30.373Z,4.97
2022-11-29T08:43:32.546Z,5.60
2022-11-29T08:44:33.950Z,5.50
2022-11-29T08:45:35.333Z,5.90
2022-11-29T08:47:15.369Z,5.53
2022-11-29T08:48:16.887Z,5.53
2022-11-29T08:49:18.576Z,5.10
2022-11-29T08:50:20.111Z,4.57
2022-11-29T08:51:21.523Z,4.83
2022-11-29T08:52:41.781Z,5.03
2022-11-29T08:53:43.498Z,5.00
2022-11-29T08:54:45.197Z,5.30
2022-11-29T08:55:47.052Z,4.97
2022-11-29T08:58:13.196Z,5.17
2022-11-29T08:59:15.171Z,6.10
2022-11-29T09:00:17.914Z,5.00
2022-11-29T09:01:20.243Z,5.07
2022-11-29T09:02:21.788Z,4.70
2022-11-29T09:03:42.492Z,4.60
2022-11-29T09:04:44.383Z,4.50
2022-11-29T09:05:46.189Z,4.80
2022-11-29T09:06:49.646Z,4.17
2022-11-29T09:07:51.295Z,4.70
2022-11-29T09:08:56.248Z,4.20
2022-11-29T09:09:57.694Z,4.13
2022-11-29T09:10:59.505Z,5.20
2022-11-29T09:12:00.921Z,3.70
2022-11-29T09:13:02.356Z,4.17
2022-11-29T09:14:06.393Z,4.63
2022-11-29T09:15:09.688Z,5.50
2022-11-29T09:16:13.795Z,4.10
2022-11-29T09:17:15.357Z,3.90
2022-11-29T09:18:16.838Z,3.97
2022-11-29T09:19:18.295Z,3.63
2022-11-29T09:20:19.675Z,3.70
2022-11-29T09:21:22.149Z,3.63
2022-11-29T09:22:23.920Z,3.80
2022-11-29T09:23:25.384Z,3.53
2022-11-29T09:24:26.859Z,3.60
2022-11-29T09:25:28.755Z,3.67
2022-11-29T09:26:33.626Z,3.00
2022-11-29T09:27:35.179Z,2.93
2022-11-29T09:28:37.070Z,3.50
2022-11-29T09:29:38.767Z,2.93
2022-11-29T09:30:40.148Z,3.37
2022-11-29T09:31:44.801Z,3.63
2022-11-29T09:32:46.585Z,3.20
2022-11-29T09:33:48.340Z,3.87
2022-11-29T09:34:49.958Z,3.03
2022-11-29T09:35:51.365Z,3.03
2022-11-29T09:36:52.944Z,2.90
2022-11-29T09:37:55.909Z,2.73
2022-11-29T09:38:59.111Z,2.87
2022-11-29T09:40:00.626Z,3.30
2022-11-29T09:41:20.084Z,4.77
2022-11-29T09:42:35.236Z,3.33
2022-11-29T09:44:10.720Z,4.20
2022-11-29T09:45:20.411Z,3.00
2022-11-29T09:46:22.035Z,3.00
2022-11-29T09:47:37.874Z,3.83
2022-11-29T09:48:54.015Z,2.87
2022-11-29T09:50:22.868Z,3.80
2022-11-29T09:51:44.918Z,3.13
2022-11-29T09:53:02.669Z,2.57
2022-11-29T09:54:18.096Z,2.63
2022-11-29T09:56:01.035Z,3.07
2022-11-29T09:57:10.342Z,3.03
2022-11-29T09:58:18.308Z,2.70
2022-11-29T09:59:29.842Z,2.30
2022-11-29T10:00:35.836Z,2.90
2022-11-29T10:02:04.316Z,2.90
2022-11-29T10:03:29.140Z,3.23
2022-11-29T10:04:37.529Z,3.50
2022-11-29T10:05:46.895Z,2.90
2022-11-29T10:07:08.774Z,2.80
2022-11-29T10:08:16.112Z,2.80
2022-11-29T10:09:21.970Z,3.10
2022-11-29T10:10:33.420Z,3.07
2022-11-29T10:11:41.887Z,3.43
2022-11-29T10:12:55.905Z,3.10
2022-11-29T10:14:03.229Z,6.10
2022-11-29T10:15:27.768Z,3.13
2022-11-29T10:16:41.283Z,2.60
2022-11-29T10:18:03.185Z,2.77
2022-11-29T10:19:10.784Z,3.27
2022-11-29T10:20:27.353Z,3.50
2022-11-29T10:21:36.085Z,3.70
2022-11-29T10:22:54.433Z,5.00
2022-11-29T10:24:01.328Z,3.23
2022-11-29T10:25:04.410Z,3.33
2022-11-29T10:26:09.030Z,3.03
2022-11-29T10:27:20.204Z,3.30
2022-11-29T10:28:31.205Z,3.33
2022-11-29T10:29:33.436Z,2.80
2022-11-29T10:30:36.417Z,2.53
2022-11-29T10:31:43.278Z,2.93
2022-11-29T10:32:48.459Z,4.03
2022-11-29T10:33:50.183Z,4.27
2022-11-29T10:34:52.250Z,3.30
2022-11-29T10:35:57.947Z,3.07
2022-11-29T10:37:01.382Z,3.10
2022-11-29T10:38:29.671Z,4.20
2022-11-29T10:39:46.403Z,3.50
2022-11-29T10:40:51.683Z,4.20
2022-11-29T10:41:56.986Z,3.10
2022-11-29T10:42:58.944Z,3.00
2022-11-29T10:44:00.626Z,2.57
2022-11-29T10:45:03.127Z,2.37
2022-11-29T10:46:06.285Z,2.30
2022-11-29T10:47:10.961Z,2.53
2022-11-29T10:48:20.420Z,2.30
2022-11-29T10:49:27.724Z,2.40
2022-11-29T10:50:32.121Z,2.93
2022-11-29T10:51:34.753Z,3.40
2022-11-29T10:52:36.107Z,3.07
2022-11-29T10:53:37.801Z,2.87
2022-11-29T10:54:44.426Z,2.70
2022-11-29T10:55:50.941Z,3.17
2022-11-29T10:56:52.988Z,3.67
2022-11-29T10:58:14.073Z,2.97
2022-11-29T10:59:28.835Z,3.13
2022-11-29T11:00:30.362Z,3.50
2022-11-29T11:01:38.266Z,2.97
2022-11-29T11:02:40.315Z,3.87
2022-11-29T11:03:44.032Z,3.10
2022-11-29T11:04:47.708Z,3.80
2022-11-29T11:06:11.979Z,3.20
2022-11-29T11:07:36.968Z,3.53
2022-11-29T11:08:41.409Z,2.83
2022-11-29T11:09:50.296Z,2.90
2022-11-29T11:11:01.167Z,3.40
2022-11-29T11:12:16.018Z,2.77
2022-11-29T11:13:29.066Z,3.27
2022-11-29T11:14:37.689Z,3.20
2022-11-29T11:15:39.186Z,3.53
2022-11-29T11:16:41.056Z,3.57
2022-11-29T11:18:06.182Z,3.10
2022-11-29T11:19:32.212Z,3.30
2022-11-29T11:20:37.728Z,3.10
2022-11-29T11:21:39.513Z,3.03
2022-11-29T11:22:41.189Z,3.07
2022-11-29T11:23:53.564Z,4.00
2022-11-29T11:25:27.442Z,3.00
2022-11-29T11:26:45.107Z,3.00
2022-11-29T11:27:47.460Z,3.23
2022-11-29T11:29:00.660Z,3.00
2022-11-29T11:30:04.536Z,2.80
2022-11-29T11:31:09.256Z,3.17
2022-11-29T11:32:19.349Z,4.07
2022-11-29T11:33:29.011Z,3.20
2022-11-29T11:34:36.019Z,3.10
2022-11-29T11:35:37.810Z,3.20
2022-11-29T11:36:39.290Z,3.60
2022-11-29T11:37:40.815Z,3.87
2022-11-29T11:39:08.863Z,2.70
2022-11-29T11:40:39.785Z,3.20
2022-11-29T11:42:01.686Z,3.00
2022-11-29T11:43:03.762Z,2.97
2022-11-29T11:44:14.903Z,3.17
2022-11-29T11:45:17.022Z,3.20
2022-11-29T11:46:18.608Z,2.90
2022-11-29T11:47:27.079Z,2.70
2022-11-29T11:48:29.139Z,3.33
2022-11-29T11:49:37.289Z,3.67
2022-11-29T11:50:51.242Z,3.53
2022-11-29T11:51:52.895Z,3.20
2022-11-29T11:52:58.080Z,4.67
2022-11-29T11:53:59.718Z,3.60
2022-11-29T11:55:06.019Z,3.73
2022-11-29T11:56:13.996Z,3.60
2022-11-29T11:57:19.199Z,2.80
2022-11-29T11:58:29.278Z,3.10
2022-11-29T11:59:31.170Z,3.03
2022-11-29T12:01:02.838Z,3.20
2022-11-29T12:02:03.023Z,3.13
2022-11-29T12:03:06.240Z,2.80
2022-11-29T12:04:16.201Z,2.97
2022-11-29T12:05:19.587Z,2.60
2022-11-29T12:06:27.249Z,2.67
2022-11-29T12:08:06.707Z,2.73
2022-11-29T12:09:08.655Z,2.40
2022-11-29T12:10:20.288Z,3.20
2022-11-29T12:11:24.088Z,2.90
2022-11-29T12:12:37.580Z,3.20
2022-11-29T12:13:45.555Z,2.67
2022-11-29T12:14:59.954Z,2.77
2022-11-29T12:16:16.480Z,3.40
2022-11-29T12:17:41.670Z,2.60
2022-11-29T12:18:48.975Z,2.57
2022-11-29T12:20:20.674Z,2.83
2022-11-29T12:21:25.640Z,2.80
2022-11-29T12:22:38.083Z,2.70
2022-11-29T12:23:52.733Z,2.77
2022-11-29T12:25:06.629Z,2.87
2022-11-29T12:26:49.027Z,3.07
2022-11-29T12:27:43.201Z,3.20
2022-11-29T12:28:45.746Z,2.97
2022-11-29T12:29:47.679Z,2.80
2022-11-29T12:30:55.964Z,3.03
2022-11-29T12:32:27.891Z,3.17
2022-11-29T12:33:32.066Z,2.93
2022-11-29T12:34:55.240Z,2.50
2022-11-29T12:36:02.193Z,2.90
2022-11-29T12:37:13.304Z,2.53
2022-11-29T12:38:50.148Z,3.70
2022-11-29T12:40:11.342Z,2.30
2022-11-29T12:41:20.089Z,2.50
2022-11-29T12:42:24.819Z,2.73
2022-11-29T12:43:56.319Z,2.53
2022-11-29T12:45:04.271Z,2.90
2022-11-29T12:46:34.868Z,2.90
2022-11-29T12:47:54.256Z,2.80
2022-11-29T12:49:16.745Z,2.80
2022-11-29T12:50:42.982Z,3.17
2022-11-29T12:52:10.259Z,2.60
2022-11-29T12:53:27.252Z,3.03
2022-11-29T12:55:03.664Z,3.00
2022-11-29T12:56:27.412Z,3.27
2022-11-29T12:57:39.575Z,2.73
2022-11-29T12:59:01.159Z,2.57
2022-11-29T13:00:11.338Z,2.87
2022-11-29T13:01:21.439Z,2.83
2022-11-29T13:02:34.904Z,3.73
2022-11-29T13:03:51.337Z,4.10
2022-11-29T13:05:17.717Z,3.90
2022-11-29T13:06:33.189Z,3.50
2022-11-29T13:07:46.437Z,2.67
2022-11-29T13:09:08.753Z,2.63
2022-11-29T13:10:20.881Z,3.23
2022-11-29T13:11:43.209Z,3.30
2022-11-29T13:13:35.420Z,3.50
2022-11-29T13:14:44.570Z,3.80
2022-11-29T13:16:03.608Z,3.33
2022-11-29T13:17:38.173Z,2.80
2022-11-29T13:19:12.047Z,3.50
2022-11-29T13:20:32.034Z,2.77
2022-11-29T13:21:51.601Z,2.73
2022-11-29T13:23:15.882Z,4.33
2022-11-29T13:24:25.638Z,3.23
2022-11-29T13:25:54.581Z,2.90
2022-11-29T13:26:57.552Z,2.83
2022-11-29T13:28:19.331Z,2.53
2022-11-29T13:29:21.511Z,4.23
2022-11-29T13:30:22.987Z,3.07
2022-11-29T13:31:25.537Z,2.87
2022-11-29T13:32:39.958Z,3.07
2022-11-29T13:33:59.331Z,2.90
2022-11-29T13:35:33.435Z,2.67
2022-11-29T13:36:47.927Z,3.17
2022-11-29T13:37:55.715Z,3.10
2022-11-29T13:39:38.620Z,3.10
2022-11-29T13:40:53.783Z,3.73
2022-11-29T13:42:07.201Z,3.73
2022-11-29T13:43:31.031Z,3.50
2022-11-29T13:45:06.958Z,3.77
2022-11-29T13:46:30.633Z,2.83
2022-11-29T13:47:32.165Z,3.40
2022-11-29T13:48:51.378Z,4.17
2022-11-29T13:50:05.018Z,3.37
2022-11-29T13:51:35.651Z,2.87
2022-11-29T13:52:48.234Z,2.73
2022-11-29T13:53:50.073Z,3.07
2022-11-29T13:55:07.449Z,3.20
2022-11-29T13:56:24.841Z,2.80
2022-11-29T13:57:26.342Z,3.10
2022-11-29T13:58:40.051Z,3.43
2022-11-29T13:59:49.365Z,2.93
2022-11-29T14:00:52.011Z,2.60
2022-11-29T14:01:54.799Z,3.13
2022-11-29T14:02:58.180Z,3.30
2022-11-29T14:04:06.205Z,3.30
2022-11-29T14:05:28.209Z,3.20
2022-11-29T14:06:38.209Z,2.80
2022-11-29T14:08:23.984Z,3.03
2022-11-29T14:09:36.486Z,3.97
2022-11-29T14:10:38.248Z,3.87
2022-11-29T14:11:42.399Z,4.13
2022-11-29T14:12:50.740Z,4.20
2022-11-29T14:14:05.535Z,3.53
2022-11-29T14:15:28.229Z,3.80
2022-11-29T14:16:38.055Z,4.10
2022-11-29T14:17:53.864Z,4.97
2022-11-29T14:19:10.009Z,5.07
2022-11-29T14:20:23.615Z,6.03
2022-11-29T14:21:25.402Z,5.47
2022-11-29T14:22:26.843Z,6.20
2022-11-29T14:23:44.328Z,6.60
2022-11-29T14:24:57.822Z,7.23
2022-11-29T14:25:59.422Z,5.80
2022-11-29T14:27:06.978Z,6.20
2022-11-29T14:28:14.393Z,5.63
2022-11-29T14:29:50.095Z,5.40
2022-11-29T14:30:55.459Z,5.53
2022-11-29T14:31:57.175Z,5.57
2022-11-29T14:33:18.751Z,5.50
2022-11-29T14:34:27.260Z,5.80
2022-11-29T14:35:37.473Z,5.00
2022-11-29T14:36:54.972Z,5.10
2022-11-29T14:38:19.307Z,5.83
2022-11-29T14:39:34.044Z,6.07
2022-11-29T14:40:41.574Z,5.60
2022-11-29T14:42:01.527Z,6.47
2022-11-29T14:43:14.807Z,4.77
2022-11-29T14:44:24.651Z,5.80
2022-11-29T14:45:32.560Z,5.10
2022-11-29T14:46:35.264Z,5.50
2022-11-29T14:47:47.074Z,5.33
2022-11-29T14:48:54.977Z,5.20
2022-11-29T14:49:58.414Z,5.60
2022-11-29T14:51:13.162Z,5.40
2022-11-29T14:52:20.192Z,4.77
2022-11-29T14:53:34.812Z,5.53
2022-11-29T14:54:54.078Z,5.50
2022-11-29T14:56:42.576Z,5.50
2022-11-29T14:57:50.216Z,5.23
2022-11-29T14:59:29.503Z,8.50
2022-11-29T15:00:35.127Z,4.57
2022-11-29T15:01:42.256Z,5.40
2022-11-29T15:02:49.410Z,4.90
2022-11-29T15:03:51.218Z,5.03
2022-11-29T15:04:56.099Z,5.90
2022-11-29T15:06:09.840Z,5.63
2022-11-29T15:07:19.759Z,4.47
2022-11-29T15:08:35.550Z,5.00
2022-11-29T15:09:38.257Z,4.50
2022-11-29T15:10:43.136Z,5.60
2022-11-29T15:11:57.691Z,5.97
2022-11-29T15:13:00.723Z,5.70
2022-11-29T15:14:07.354Z,4.87
2022-11-29T15:15:28.898Z,5.20
2022-11-29T15:16:51.787Z,5.17
2022-11-29T15:18:01.030Z,5.07
2022-11-29T15:19:25.366Z,4.70
2022-11-29T15:21:11.129Z,5.40
2022-11-29T15:22:38.558Z,5.47
2022-11-29T15:23:42.573Z,5.90
2022-11-29T15:24:55.470Z,5.50
2022-11-29T15:26:00.514Z,5.30
2022-11-29T15:27:03.939Z,5.67
2022-11-29T15:28:06.662Z,6.60
2022-11-29T15:29:19.790Z,5.60
2022-11-29T15:30:42.049Z,6.60
2022-11-29T15:31:44.645Z,7.03
2022-11-29T15:32:46.918Z,5.50
2022-11-29T15:33:50.460Z,6.73
2022-11-29T15:34:54.531Z,5.83
2022-11-29T15:36:04.167Z,7.00
2022-11-29T15:37:05.882Z,6.20
2022-11-29T15:38:12.051Z,5.80
2022-11-29T15:39:35.810Z,5.43
2022-11-29T15:40:52.125Z,6.20
2022-11-29T15:41:53.764Z,5.70
2022-11-29T15:43:01.954Z,6.43
2022-11-29T15:44:06.312Z,6.70
2022-11-29T15:45:34.512Z,6.60
2022-11-29T15:46:36.129Z,6.10
2022-11-29T15:47:37.846Z,5.80
2022-11-29T15:48:39.298Z,5.97
2022-11-29T15:49:41.114Z,6.33
2022-11-29T15:50:58.428Z,5.60
2022-11-29T15:52:06.014Z,6.60
2022-11-29T15:53:15.674Z,5.80
2022-11-29T15:54:34.138Z,6.00